createdAt,value
2024-04-22T00:00:10.234Z,77.25
2024-04-22T00:02:37.186Z,77.56
2024-04-22T00:05:09.779Z,77.61
2024-04-22T00:07:36.787Z,77.27
2024-04-22T00:10:09.751Z,77.78
2024-04-22T00:12:36.699Z,77.47
2024-04-22T00:15:06.568Z,77.12
2024-04-22T00:17:33.802Z,78.02
2024-04-22T00:20:03.356Z,78.01
2024-04-22T00:22:30.308Z,76.28
2024-04-22T00:24:59.884Z,76.71
2024-04-22T00:27:29.599Z,76.62
2024-04-22T00:29:59.128Z,76.83
2024-04-22T00:32:26.104Z,76.57
2024-04-22T00:34:55.650Z,76.46
2024-04-22T00:37:22.715Z,76.47
2024-04-22T00:39:52.225Z,76.38
2024-04-22T00:42:19.117Z,75.43
2024-04-22T00:44:51.292Z,76.16
2024-04-22T00:47:18.301Z,75.46
2024-04-22T00:49:48.396Z,75.16
2024-04-22T00:52:15.423Z,75.01
2024-04-22T00:54:45.026Z,75.07
2024-04-22T00:57:12.587Z,74.96
2024-04-22T00:59:42.688Z,74.95
2024-04-22T01:02:12.433Z,75.09
2024-04-22T01:04:44.381Z,76.38
2024-04-22T01:07:11.968Z,75.16
2024-04-22T01:09:41.649Z,75.30
2024-04-22T01:12:09.014Z,75.48
2024-04-22T01:14:38.594Z,76.87
2024-04-22T01:17:05.675Z,74.81
2024-04-22T01:19:37.934Z,75.81
2024-04-22T01:22:07.725Z,76.05
2024-04-22T01:24:37.447Z,76.55
2024-04-22T01:27:06.703Z,75.46
2024-04-22T01:29:36.294Z,75.84
2024-04-22T01:32:03.235Z,77.56
2024-04-22T01:34:32.820Z,76.79
2024-04-22T01:36:59.753Z,77.77
2024-04-22T01:39:31.897Z,76.27
2024-04-22T01:41:58.845Z,77.35
2024-04-22T01:44:28.330Z,77.15
2024-04-22T01:46:55.336Z,77.16
2024-04-22T01:49:24.935Z,75.98
2024-04-22T01:51:51.921Z,76.57
2024-04-22T01:54:21.502Z,78.31
2024-04-22T01:56:51.448Z,76.59
2024-04-22T01:59:22.307Z,77.18
2024-04-22T02:01:49.480Z,77.72
2024-04-22T02:04:19.220Z,77.89
2024-04-22T02:06:46.132Z,78.33
2024-04-22T02:09:15.687Z,76.88
2024-04-22T02:11:42.642Z,76.25
2024-04-22T02:14:14.773Z,75.13
2024-04-22T02:16:41.688Z,74.12
2024-04-22T02:19:11.261Z,74.22
2024-04-22T02:21:38.188Z,73.70
2024-04-22T02:24:08.066Z,76.24
2024-04-22T02:26:35.014Z,75.68
2024-04-22T02:29:04.624Z,76.94
2024-04-22T02:31:34.208Z,78.35
2024-04-22T02:34:03.784Z,78.65
2024-04-22T02:36:30.887Z,79.09
2024-04-22T02:39:00.432Z,78.80
2024-04-22T02:41:27.370Z,78.29
2024-04-22T02:43:56.886Z,78.17
2024-04-22T02:46:23.891Z,78.27
2024-04-22T02:48:56.102Z,78.22
2024-04-22T02:51:23.145Z,78.30
2024-04-22T02:53:52.657Z,77.77
2024-04-22T02:56:19.541Z,78.40
2024-04-22T02:58:50.077Z,77.75
2024-04-22T03:01:17.095Z,77.85
2024-04-22T03:03:46.683Z,77.11
2024-04-22T03:06:16.210Z,76.53
2024-04-22T03:08:45.850Z,76.62
2024-04-22T03:11:12.846Z,77.09
2024-04-22T03:13:42.462Z,77.90
2024-04-22T03:16:09.769Z,78.63
2024-04-22T03:18:39.299Z,77.70
2024-04-22T03:21:06.212Z,79.01
2024-04-22T03:23:38.433Z,78.28
2024-04-22T03:26:05.330Z,78.27
2024-04-22T03:28:34.924Z,77.63
2024-04-22T03:31:03.524Z,77.18
2024-04-22T03:33:34.409Z,76.95
2024-04-22T03:36:02.115Z,77.05
2024-04-22T03:38:31.642Z,76.18
2024-04-22T03:41:03.822Z,74.79
2024-04-22T03:43:30.780Z,75.78
2024-04-22T03:46:16.316Z,77.04
2024-04-22T03:49:01.753Z,76.83
2024-04-22T03:51:31.326Z,77.39
2024-04-22T03:54:00.895Z,77.24
2024-04-22T03:56:33.072Z,77.59
2024-04-22T03:59:02.564Z,78.41
2024-04-22T04:01:32.145Z,76.63
2024-04-22T04:04:00.747Z,76.76
2024-04-22T04:06:30.684Z,74.87
2024-04-22T04:08:57.656Z,74.49
2024-04-22T04:11:34.165Z,73.90
2024-04-22T04:14:03.803Z,74.22
2024-04-22T04:16:33.457Z,74.88
2024-04-22T04:19:00.756Z,75.57
2024-04-22T04:21:30.467Z,76.00
2024-04-22T04:23:57.404Z,74.19
2024-04-22T04:26:27.021Z,74.17
2024-04-22T04:28:54.164Z,73.58
2024-04-22T04:31:26.398Z,74.23
2024-04-22T04:33:53.381Z,75.45
2024-04-22T04:36:22.961Z,74.72
2024-04-22T04:38:52.512Z,75.63
2024-04-22T04:41:21.602Z,75.24
2024-04-22T04:43:51.195Z,75.60
2024-04-22T04:46:18.141Z,75.07
2024-04-22T04:48:53.368Z,74.50
2024-04-22T04:51:20.828Z,75.85
2024-04-22T04:53:51.206Z,75.90
2024-04-22T04:56:18.117Z,76.00
2024-04-22T04:58:47.679Z,76.30
2024-04-22T05:01:17.460Z,76.28
2024-04-22T05:03:51.503Z,76.70
2024-04-22T05:06:18.433Z,76.61
2024-04-22T05:08:48.041Z,76.87
2024-04-22T05:11:14.966Z,76.26
2024-04-22T05:13:44.606Z,76.43
2024-04-22T05:16:11.555Z,76.28
2024-04-22T05:18:43.832Z,76.21
2024-04-22T05:21:13.663Z,75.61
2024-04-22T05:23:44.185Z,75.70
2024-04-22T05:26:11.094Z,75.31
2024-04-22T05:28:40.812Z,75.31
2024-04-22T05:31:07.814Z,75.25
2024-04-22T05:33:53.489Z,75.85
2024-04-22T05:36:25.639Z,75.20
2024-04-22T05:38:55.172Z,75.13
2024-04-22T05:41:24.713Z,74.94
2024-04-22T05:43:54.243Z,73.94
2024-04-22T05:46:23.921Z,74.31
2024-04-22T05:48:50.848Z,73.61
2024-04-22T05:51:20.347Z,74.17
2024-04-22T05:53:49.927Z,72.69
2024-04-22T05:56:19.464Z,72.60
2024-04-22T05:58:46.473Z,72.86
2024-04-22T06:01:16.122Z,72.48
2024-04-22T06:03:43.121Z,71.44
2024-04-22T06:06:12.646Z,70.43
2024-04-22T06:08:39.668Z,71.97
2024-04-22T06:11:12.125Z,69.62
2024-04-22T06:13:39.456Z,68.61
2024-04-22T06:16:09.765Z,68.13
2024-04-22T06:18:36.701Z,68.91
2024-04-22T06:21:06.822Z,67.61
2024-04-22T06:23:34.018Z,68.32
2024-04-22T06:26:06.837Z,67.42
2024-04-22T06:28:36.717Z,67.13
2024-04-22T06:31:08.554Z,66.83
2024-04-22T06:33:41.832Z,67.21
2024-04-22T06:36:11.473Z,68.37
2024-04-22T06:38:38.849Z,66.81
2024-04-22T06:41:08.480Z,66.48
2024-04-22T06:43:40.240Z,64.14
2024-04-22T06:46:09.969Z,64.53
2024-04-22T06:48:36.971Z,64.45
2024-04-22T06:51:07.347Z,65.50
2024-04-22T06:53:34.303Z,64.20
2024-04-22T06:56:03.861Z,63.97
2024-04-22T06:58:30.860Z,63.96
2024-04-22T07:01:03.501Z,61.54
2024-04-22T07:03:30.541Z,62.05
2024-04-22T07:06:00.129Z,62.74
2024-04-22T07:08:27.049Z,62.31
2024-04-22T07:10:56.581Z,61.84
2024-04-22T07:13:23.716Z,63.20
2024-04-22T07:15:53.246Z,61.06
2024-04-22T07:18:22.882Z,60.71
2024-04-22T07:20:52.421Z,59.16
2024-04-22T07:23:19.290Z,60.41
2024-04-22T07:25:48.822Z,59.47
2024-04-22T07:28:16.380Z,58.58
2024-04-22T07:30:46.403Z,59.55
2024-04-22T07:33:13.959Z,58.57
2024-04-22T07:35:51.177Z,57.79
2024-04-22T07:38:22.247Z,58.26
2024-04-22T07:40:52.355Z,56.32
2024-04-22T07:43:19.358Z,56.06
2024-04-22T07:45:48.893Z,56.47
2024-04-22T07:48:15.947Z,56.84
2024-04-22T07:50:48.109Z,54.97
2024-04-22T07:53:15.515Z,54.87
2024-04-22T07:55:45.726Z,56.12
2024-04-22T07:58:13.195Z,55.82
2024-04-22T08:00:43.579Z,56.61
2024-04-22T08:03:11.656Z,55.60
2024-04-22T08:05:41.694Z,55.15
2024-04-22T08:08:13.106Z,55.69
2024-04-22T08:10:42.505Z,53.84
2024-04-22T08:13:10.319Z,54.47
2024-04-22T08:15:39.976Z,53.95
2024-04-22T08:18:06.972Z,54.31
2024-04-22T08:20:36.468Z,52.67
2024-04-22T08:23:03.414Z,52.03
2024-04-22T08:25:35.750Z,50.75
2024-04-22T08:28:02.835Z,51.03
2024-04-22T08:30:32.886Z,49.86
2024-04-22T08:33:01.246Z,51.25
2024-04-22T08:35:31.124Z,51.79
2024-04-22T08:37:58.050Z,49.74
2024-04-22T08:40:28.578Z,48.77
2024-04-22T08:42:58.484Z,51.07
2024-04-22T08:45:29.606Z,50.54
2024-04-22T08:47:56.681Z,48.57
2024-04-22T08:50:26.409Z,48.70
2024-04-22T08:52:56.477Z,51.21
2024-04-22T08:55:26.647Z,47.82
2024-04-22T08:57:53.566Z,47.33
2024-04-22T09:00:25.830Z,47.37
2024-04-22T09:02:52.892Z,47.49
2024-04-22T09:05:22.653Z,46.36
2024-04-22T09:07:52.959Z,46.48
2024-04-22T09:10:55.342Z,47.69
2024-04-22T09:13:10.864Z,46.23
2024-04-22T09:15:43.052Z,51.79
2024-04-22T09:18:12.672Z,45.09
2024-04-22T09:20:42.353Z,46.18
2024-04-22T09:23:09.450Z,45.78
2024-04-22T09:25:39.484Z,45.68
2024-04-22T09:28:08.308Z,42.83
2024-04-22T09:30:46.583Z,43.57
2024-04-22T09:33:20.779Z,39.45
2024-04-22T09:35:54.568Z,41.63
2024-04-22T09:38:34.792Z,43.68
2024-04-22T09:41:10.869Z,43.62
2024-04-22T09:43:41.373Z,44.91
2024-04-22T09:46:15.292Z,45.44
2024-04-22T09:48:45.684Z,43.53
2024-04-22T09:51:15.780Z,42.94
2024-04-22T09:53:42.859Z,45.46
2024-04-22T09:56:17.206Z,44.54
2024-04-22T09:58:44.705Z,38.74
2024-04-22T10:01:17.364Z,44.24
2024-04-22T10:03:44.662Z,42.23
2024-04-22T10:06:15.942Z,41.02
2024-04-22T10:08:42.778Z,40.82
2024-04-22T10:11:14.951Z,45.01
2024-04-22T10:13:41.997Z,44.43
2024-04-22T10:16:18.495Z,42.46
2024-04-22T10:18:46.876Z,39.92
2024-04-22T10:21:16.492Z,42.01
2024-04-22T10:23:44.941Z,38.57
2024-04-22T10:26:20.874Z,42.08
2024-04-22T10:28:48.644Z,42.70
2024-04-22T10:31:26.282Z,45.46
2024-04-22T10:33:53.157Z,44.43
2024-04-22T10:36:24.803Z,46.28
2024-04-22T10:38:51.744Z,46.57
2024-04-22T10:41:21.557Z,48.99
2024-04-22T10:43:50.801Z,48.24
2024-04-22T10:46:20.605Z,49.96
2024-04-22T10:48:52.466Z,48.25
2024-04-22T10:51:22.331Z,48.24
2024-04-22T10:53:51.112Z,48.13
2024-04-22T10:56:20.632Z,47.13
2024-04-22T10:58:48.394Z,47.21
2024-04-22T11:01:18.175Z,48.14
2024-04-22T11:03:49.469Z,45.46
2024-04-22T11:06:19.060Z,44.00
2024-04-22T11:08:46.220Z,47.62
2024-04-22T11:11:16.975Z,46.60
2024-04-22T11:13:45.455Z,45.18
2024-04-22T11:16:17.190Z,46.60
2024-04-22T11:18:44.435Z,45.40
2024-04-22T11:21:16.640Z,45.60
2024-04-22T11:23:43.704Z,49.21
2024-04-22T11:26:13.729Z,47.71
2024-04-22T11:28:41.410Z,50.36
2024-04-22T11:31:11.106Z,42.22
2024-04-22T11:33:38.055Z,42.27
2024-04-22T11:36:08.273Z,46.01
2024-04-22T11:38:37.788Z,41.94
2024-04-22T11:41:07.756Z,40.64
2024-04-22T11:43:34.846Z,45.80
2024-04-22T11:46:04.588Z,45.27
2024-04-22T11:48:31.591Z,45.09
2024-04-22T11:51:01.239Z,45.02
2024-04-22T11:53:28.264Z,45.68
2024-04-22T11:56:00.537Z,43.66
2024-04-22T11:58:27.491Z,45.44
2024-04-22T12:00:57.165Z,46.10
2024-04-22T12:03:24.110Z,48.58
2024-04-22T12:05:53.692Z,52.85
2024-04-22T12:08:20.689Z,55.57
2024-04-22T12:10:51.023Z,55.83
2024-04-22T12:13:20.587Z,56.62
2024-04-22T12:15:50.108Z,58.39
2024-04-22T12:18:17.015Z,59.04
2024-04-22T12:20:46.535Z,58.86
2024-04-22T12:23:13.421Z,61.26
2024-04-22T12:25:43.034Z,59.65
2024-04-22T12:28:14.295Z,59.42
2024-04-22T12:30:52.974Z,59.26
2024-04-22T12:33:20.163Z,59.98
2024-04-22T12:35:49.874Z,55.99
2024-04-22T12:38:16.831Z,53.71
2024-04-22T12:40:46.620Z,57.56
2024-04-22T12:43:13.644Z,57.07
2024-04-22T12:45:44.802Z,58.36
2024-04-22T12:48:32.921Z,59.57
2024-04-22T12:51:02.982Z,55.61
2024-04-22T12:53:32.742Z,52.49
2024-04-22T12:56:03.702Z,55.27
2024-04-22T12:58:34.028Z,50.97
2024-04-22T13:01:05.796Z,47.83
2024-04-22T13:03:36.005Z,45.79
2024-04-22T13:06:05.610Z,46.66
2024-04-22T13:08:35.145Z,46.71
2024-04-22T13:11:05.058Z,47.23
2024-04-22T13:13:34.846Z,45.74
2024-04-22T13:16:04.582Z,50.95
2024-04-22T13:18:34.170Z,51.79
2024-04-22T13:21:04.048Z,54.03
2024-04-22T13:23:33.600Z,53.60
2024-04-22T13:26:00.789Z,55.74
2024-04-22T13:28:33.451Z,52.72
2024-04-22T13:31:04.750Z,54.56
2024-04-22T13:33:31.913Z,56.73
2024-04-22T13:36:01.632Z,53.76
2024-04-22T13:38:31.175Z,54.61
2024-04-22T13:41:00.798Z,53.52
2024-04-22T13:43:27.892Z,57.01
2024-04-22T13:45:57.789Z,53.96
2024-04-22T13:48:24.775Z,52.19
2024-04-22T13:50:54.461Z,49.95
2024-04-22T13:53:26.799Z,50.63
2024-04-22T13:56:03.923Z,52.15
2024-04-22T13:58:30.861Z,51.80
2024-04-22T14:01:00.594Z,44.83
2024-04-22T14:03:27.613Z,43.97
2024-04-22T14:05:57.206Z,43.49
2024-04-22T14:08:26.752Z,44.47
2024-04-22T14:10:53.799Z,51.51
2024-04-22T14:13:26.431Z,43.79
2024-04-22T14:15:53.356Z,45.21
2024-04-22T14:18:22.907Z,44.82
2024-04-22T14:20:49.938Z,48.31
2024-04-22T14:23:19.468Z,51.30
2024-04-22T14:25:47.989Z,47.02
2024-04-22T14:28:17.650Z,45.66
2024-04-22T14:30:47.156Z,47.92
2024-04-22T14:33:21.247Z,48.13
2024-04-22T14:35:50.178Z,47.73
2024-04-22T14:38:19.677Z,49.58
2024-04-22T14:40:46.620Z,49.88
2024-04-22T14:43:16.170Z,49.53
2024-04-22T14:45:43.146Z,47.62
2024-04-22T14:48:15.384Z,48.96
2024-04-22T14:50:42.360Z,48.72
2024-04-22T14:53:11.920Z,48.94
2024-04-22T14:55:39.425Z,47.83
2024-04-22T14:58:09.906Z,46.58
2024-04-22T15:00:37.595Z,48.11
2024-04-22T15:03:07.426Z,47.67
2024-04-22T15:05:37.160Z,48.62
2024-04-22T15:08:07.067Z,44.80
2024-04-22T15:10:46.981Z,44.02
2024-04-22T15:13:16.553Z,43.71
2024-04-22T15:15:43.508Z,45.85
2024-04-22T15:18:13.217Z,46.79
2024-04-22T15:20:42.828Z,47.28
2024-04-22T15:23:12.570Z,49.56
2024-04-22T15:25:39.573Z,48.33
2024-04-22T15:28:09.487Z,49.04
2024-04-22T15:30:36.415Z,48.68
2024-04-22T15:33:07.209Z,50.15
2024-04-22T15:35:34.393Z,47.91
2024-04-22T15:38:06.752Z,49.50
2024-04-22T15:40:37.693Z,49.25
2024-04-22T15:43:07.716Z,50.57
2024-04-22T15:45:34.699Z,51.61
2024-04-22T15:48:04.348Z,48.71
2024-04-22T15:50:32.995Z,47.79
2024-04-22T15:53:02.557Z,46.67
2024-04-22T15:55:32.173Z,47.11
2024-04-22T15:58:01.783Z,44.67
2024-04-22T16:00:28.687Z,44.32
2024-04-22T16:02:58.223Z,46.96
2024-04-22T16:05:26.111Z,50.15
2024-04-22T16:07:55.616Z,52.50
2024-04-22T16:10:22.632Z,53.12
2024-04-22T16:12:54.853Z,53.54
2024-04-22T16:15:21.823Z,55.29
2024-04-22T16:17:51.461Z,56.46
2024-04-22T16:20:18.488Z,57.63
2024-04-22T16:22:48.192Z,57.87
2024-04-22T16:25:16.402Z,57.75
2024-04-22T16:27:45.945Z,57.58
2024-04-22T16:30:15.681Z,57.15
2024-04-22T16:32:45.295Z,57.55
2024-04-22T16:35:13.399Z,57.08
2024-04-22T16:37:44.218Z,56.71
2024-04-22T16:40:11.804Z,54.75
2024-04-22T16:42:41.333Z,54.28
2024-04-22T16:45:08.685Z,54.44
2024-04-22T16:47:40.914Z,51.62
2024-04-22T16:50:08.258Z,49.29
2024-04-22T16:52:37.788Z,49.73
2024-04-22T16:55:05.398Z,47.31
2024-04-22T16:57:34.879Z,44.70
2024-04-22T17:00:01.896Z,44.82
2024-04-22T17:02:31.582Z,45.15
2024-04-22T17:05:03.813Z,43.86
2024-04-22T17:07:30.761Z,44.34
2024-04-22T17:10:00.346Z,46.36
2024-04-22T17:12:29.879Z,46.21
2024-04-22T17:14:56.894Z,49.72
2024-04-22T17:17:26.775Z,49.14
2024-04-22T17:19:53.915Z,49.40
2024-04-22T17:22:26.569Z,48.56
2024-04-22T17:24:53.618Z,48.15
2024-04-22T17:27:24.155Z,48.28
2024-04-22T17:29:51.506Z,47.18
2024-04-22T17:32:21.183Z,48.64
2024-04-22T17:34:48.455Z,49.63
2024-04-22T17:37:19.476Z,49.57
2024-04-22T17:39:49.298Z,50.70
2024-04-22T17:42:18.835Z,50.67
2024-04-22T17:44:48.593Z,51.11
2024-04-22T17:47:18.396Z,52.08
2024-04-22T17:49:45.340Z,52.01
2024-04-22T17:52:14.930Z,51.99
2024-04-22T17:54:41.893Z,53.87
2024-04-22T17:57:15.196Z,54.48
2024-04-22T17:59:42.177Z,54.73
2024-04-22T18:02:11.771Z,54.59
2024-04-22T18:04:38.883Z,54.96
2024-04-22T18:07:08.506Z,55.65
2024-04-22T18:09:35.432Z,56.27
2024-04-22T18:12:06.217Z,56.72
2024-04-22T18:14:36.944Z,56.75
2024-04-22T18:17:06.706Z,58.28
2024-04-22T18:19:33.738Z,58.01
2024-04-22T18:22:07.931Z,58.26
2024-04-22T18:24:40.935Z,59.13
2024-04-22T18:27:10.473Z,59.46
2024-04-22T18:29:42.810Z,59.71
2024-04-22T18:32:09.842Z,62.24
2024-04-22T18:34:39.361Z,63.20
2024-04-22T18:37:06.345Z,62.03
2024-04-22T18:39:35.871Z,60.88
2024-04-22T18:42:02.827Z,62.81
2024-04-22T18:44:32.413Z,63.08
2024-04-22T18:47:02.141Z,61.90
2024-04-22T18:49:31.839Z,61.86
2024-04-22T18:51:59.091Z,63.40
2024-04-22T18:54:28.826Z,62.97
2024-04-22T18:56:55.838Z,62.81
2024-04-22T18:59:25.425Z,63.11
2024-04-22T19:01:52.416Z,62.79
2024-04-22T19:04:24.594Z,63.29
2024-04-22T19:06:51.716Z,65.19
2024-04-22T19:09:21.318Z,63.41
2024-04-22T19:11:48.298Z,64.05
2024-04-22T19:14:18.675Z,64.03
2024-04-22T19:16:45.649Z,63.63
2024-04-22T19:19:15.276Z,64.11
2024-04-22T19:21:44.884Z,63.82
2024-04-22T19:24:14.409Z,64.36
2024-04-22T19:26:41.352Z,63.66
2024-04-22T19:29:10.886Z,63.78
2024-04-22T19:31:37.942Z,63.32
2024-04-22T19:34:07.577Z,64.60
2024-04-22T19:36:34.536Z,65.23
2024-04-22T19:39:07.441Z,65.63
2024-04-22T19:41:34.355Z,65.31
2024-04-22T19:44:03.898Z,65.25
2024-04-22T19:46:32.196Z,65.71
2024-04-22T19:49:02.492Z,65.55
2024-04-22T19:51:29.429Z,65.16
2024-04-22T19:53:58.911Z,65.08
2024-04-22T19:56:28.463Z,65.22
2024-04-22T19:58:58.077Z,64.88
2024-04-22T20:01:25.030Z,65.20
2024-04-22T20:03:54.619Z,65.13
2024-04-22T20:06:21.664Z,65.24
2024-04-22T20:08:51.849Z,65.18
2024-04-22T20:11:18.871Z,65.68
2024-04-22T20:13:51.013Z,65.42
2024-04-22T20:16:24.092Z,65.75
2024-04-22T20:19:02.626Z,65.96
2024-04-22T20:21:29.611Z,66.14
2024-04-22T20:23:59.125Z,66.73
2024-04-22T20:26:26.445Z,65.87
2024-04-22T20:28:58.554Z,67.02
2024-04-22T20:31:25.556Z,65.79
2024-04-22T20:33:56.655Z,64.77
2024-04-22T20:36:25.446Z,66.68
2024-04-22T20:38:57.647Z,67.18
2024-04-22T20:41:24.623Z,67.14
2024-04-22T20:44:00.891Z,66.94
2024-04-22T20:46:27.978Z,66.82
2024-04-22T20:48:57.586Z,67.72
2024-04-22T20:51:24.538Z,67.54
2024-04-22T20:53:54.046Z,68.48
2024-04-22T20:56:20.959Z,69.06
2024-04-22T20:58:50.520Z,70.31
2024-04-22T21:01:20.694Z,70.76
2024-04-22T21:03:50.672Z,71.49
2024-04-22T21:06:17.656Z,71.41
2024-04-22T21:08:47.279Z,72.33
2024-04-22T21:11:14.403Z,73.12
2024-04-22T21:13:46.698Z,72.85
2024-04-22T21:16:13.701Z,73.42
2024-04-22T21:18:45.846Z,71.71
2024-04-22T21:21:12.785Z,72.41
2024-04-22T21:23:42.583Z,73.52
2024-04-22T21:26:09.552Z,71.90
2024-04-22T21:28:39.440Z,73.51
2024-04-22T21:31:06.788Z,74.03
2024-04-22T21:33:50.769Z,73.42
2024-04-22T21:36:25.927Z,73.62
2024-04-22T21:38:55.434Z,72.93
2024-04-22T21:41:22.378Z,72.69
2024-04-22T21:43:51.966Z,73.00
2024-04-22T21:46:18.956Z,74.06
2024-04-22T21:48:48.459Z,74.92
2024-04-22T21:51:15.378Z,75.58
2024-04-22T21:53:47.669Z,75.41
2024-04-22T21:56:19.378Z,75.30
2024-04-22T21:59:26.515Z,75.37
2024-04-22T22:02:30.849Z,76.23
2024-04-22T22:05:37.881Z,76.00
2024-04-22T22:08:04.865Z,75.62
2024-04-22T22:10:37.550Z,76.17
2024-04-22T22:13:04.698Z,76.40
2024-04-22T22:15:34.286Z,76.24
2024-04-22T22:18:01.629Z,75.83
2024-04-22T22:20:31.830Z,76.60
2024-04-22T22:22:58.974Z,76.47
2024-04-22T22:25:28.940Z,76.38
2024-04-22T22:27:58.515Z,76.66
2024-04-22T22:30:28.040Z,76.91
2024-04-22T22:32:54.951Z,76.53
2024-04-22T22:35:24.485Z,75.06
2024-04-22T22:37:51.630Z,73.27
2024-04-22T22:40:21.374Z,74.00
2024-04-22T22:42:49.349Z,75.54
2024-04-22T22:45:21.729Z,76.54
2024-04-22T22:47:48.689Z,76.99
2024-04-22T22:50:18.223Z,76.11
2024-04-22T22:52:45.260Z,76.52
2024-04-22T22:55:14.873Z,76.63
2024-04-22T22:57:41.815Z,76.38
2024-04-22T23:00:11.943Z,76.36
2024-04-22T23:02:41.613Z,76.70
2024-04-22T23:05:11.154Z,76.91
2024-04-22T23:07:38.135Z,76.08
2024-04-22T23:10:08.266Z,75.62
2024-04-22T23:12:35.191Z,74.20
2024-04-22T23:15:04.704Z,73.80
2024-04-22T23:17:31.660Z,72.63
2024-04-22T23:20:03.853Z,73.59
2024-04-22T23:22:30.832Z,73.76
2024-04-22T23:25:00.468Z,75.23
2024-04-22T23:27:27.456Z,76.46
2024-04-22T23:29:56.944Z,75.12
2024-04-22T23:32:23.852Z,75.86
2024-04-22T23:34:53.396Z,75.85
2024-04-22T23:37:23.277Z,77.00
2024-04-22T23:39:52.876Z,77.06
2024-04-22T23:42:19.830Z,79.65
2024-04-22T23:44:49.403Z,79.86
2024-04-22T23:47:16.337Z,79.83
2024-04-22T23:49:45.883Z,80.22
2024-04-22T23:52:12.818Z,80.50
2024-04-22T23:54:44.991Z,78.47
2024-04-22T23:57:11.885Z,77.37
2024-04-22T23:59:41.399Z,77.06
